Terminal Aerodrome Forecast
Issued by NWS Blacksburg, VA

Home | Current Version | Previous Version | Text Only | Print | Product List | Glossary On
Versions: 1 2 3 4 5 6 7 8 9 10 11 12 13 14 15 16 17 18 19 20 21 22 23 24 25
000
FTUS41 KRNK 242337
TAFROA
TAF
KROA 242337Z 2500/2524 16010KT P6SM SKC
     FM250200 16005KT P6SM SKC
     FM251400 19007KT P6SM SCT040 SCT250
     FM251700 20012G20KT P6SM SCT050 SCT250
      TEMPO 2518/2522 BKN050=

USA.gov is the U.S. government's official web portal to all federal, state and local government web resources and services.